createdAt,value
2018-05-18T00:00:14.912Z,98727.17
2018-05-18T00:02:42.399Z,98724.14
2018-05-18T00:05:09.883Z,98724.14
2018-05-18T00:07:37.364Z,98725.50
2018-05-18T00:10:04.960Z,98721.97
2018-05-18T00:12:32.450Z,98727.20
2018-05-18T00:14:59.980Z,98726.84
2018-05-18T00:17:27.469Z,98724.73
2018-05-18T00:19:54.966Z,98724.31
2018-05-18T00:22:22.454Z,98717.33
2018-05-18T00:24:49.992Z,98717.84
2018-05-18T00:27:17.500Z,98716.98
2018-05-18T00:29:44.996Z,98717.88
2018-05-18T00:32:12.484Z,98710.48
2018-05-18T00:34:40.101Z,98708.23
2018-05-18T00:37:07.586Z,98706.80
2018-05-18T00:39:35.068Z,98703.16
2018-05-18T00:42:02.577Z,98703.54
2018-05-18T00:44:30.054Z,98708.84
2018-05-18T00:46:57.545Z,98702.64
2018-05-18T00:49:25.026Z,98702.66
2018-05-18T00:51:52.536Z,98700.94
2018-05-18T00:54:20.013Z,98704.46
2018-05-18T00:56:47.529Z,98707.23
2018-05-18T00:59:15.014Z,98702.03
2018-05-18T01:01:42.497Z,98702.13
2018-05-18T01:04:10.003Z,98697.34
2018-05-18T01:06:37.598Z,98697.33
2018-05-18T01:09:05.830Z,98701.64
2018-05-18T01:11:33.311Z,98700.80
2018-05-18T01:14:00.826Z,98695.58
2018-05-18T01:16:28.331Z,98692.65
2018-05-18T01:18:55.828Z,98696.13
2018-05-18T01:21:23.299Z,98698.02
2018-05-18T01:23:50.791Z,98693.25
2018-05-18T01:26:18.378Z,98691.55
2018-05-18T01:28:45.904Z,98699.33
2018-05-18T01:31:13.492Z,98704.53
2018-05-18T01:33:41.166Z,98698.40
2018-05-18T01:36:08.656Z,98698.40
2018-05-18T01:38:36.145Z,98701.45
2018-05-18T01:41:03.632Z,98704.59
2018-05-18T01:43:31.162Z,98702.41
2018-05-18T01:45:58.705Z,98708.28
2018-05-18T01:48:26.194Z,98702.59
2018-05-18T01:50:53.682Z,98707.44
2018-05-18T01:53:21.171Z,98708.28
2018-05-18T01:55:48.655Z,98712.23
2018-05-18T01:58:16.155Z,98710.55
2018-05-18T02:00:43.680Z,98704.52
2018-05-18T02:03:11.160Z,98707.27
2018-05-18T02:05:38.660Z,98707.39
2018-05-18T02:08:06.162Z,98710.14
2018-05-18T02:10:33.676Z,98702.34
2018-05-18T02:13:01.159Z,98707.38
2018-05-18T02:15:28.643Z,98712.63
2018-05-18T02:17:56.121Z,98714.37
2018-05-18T02:20:23.652Z,98712.67
2018-05-18T02:22:51.220Z,98714.39
2018-05-18T02:25:19.524Z,98717.55
2018-05-18T02:27:47.020Z,98720.70
2018-05-18T02:30:14.518Z,98720.39
2018-05-18T02:32:42.017Z,98722.22
2018-05-18T02:35:09.507Z,98713.92
2018-05-18T02:37:37.009Z,98717.97
2018-05-18T02:40:04.495Z,98722.43
2018-05-18T02:42:32.001Z,98712.82
2018-05-18T02:44:59.489Z,98720.75
2018-05-18T02:47:26.982Z,98719.03
2018-05-18T02:49:54.471Z,98724.38
2018-05-18T02:52:21.968Z,98725.70
2018-05-18T02:54:49.519Z,98722.70
2018-05-18T02:57:16.988Z,98713.95
2018-05-18T02:59:44.475Z,98716.17
2018-05-18T03:02:11.959Z,98715.78
2018-05-18T03:04:39.468Z,98714.48
2018-05-18T03:07:06.989Z,98719.34
2018-05-18T03:09:34.554Z,98720.25
2018-05-18T03:12:02.030Z,98721.59
2018-05-18T03:14:29.535Z,98719.86
2018-05-18T03:16:57.029Z,98718.59
2018-05-18T03:19:24.535Z,98723.88
2018-05-18T03:21:52.033Z,98724.81
2018-05-18T03:24:19.513Z,98726.13
2018-05-18T03:26:47.008Z,98721.31
2018-05-18T03:29:14.499Z,98730.54
2018-05-18T03:31:42.001Z,98730.13
2018-05-18T03:34:09.466Z,98732.78
2018-05-18T03:36:36.981Z,98736.27
2018-05-18T03:39:04.537Z,98739.78
2018-05-18T03:41:32.021Z,98744.61
2018-05-18T03:43:59.535Z,98737.60
2018-05-18T03:46:27.015Z,98739.30
2018-05-18T03:48:54.527Z,98740.60
2018-05-18T03:51:22.104Z,98742.42
2018-05-18T03:53:49.624Z,98738.93
2018-05-18T03:56:17.122Z,98740.27
2018-05-18T03:58:44.597Z,98745.08
2018-05-18T04:01:24.007Z,98744.23
2018-05-18T04:04:03.370Z,98745.61
2018-05-18T04:09:29.916Z,98753.02
2018-05-18T04:11:57.432Z,98750.84
2018-05-18T04:14:24.899Z,98753.89
2018-05-18T04:16:52.374Z,98755.64
2018-05-18T04:19:19.857Z,98751.72
2018-05-18T04:21:47.333Z,98758.24
2018-05-18T04:24:14.815Z,98757.32
2018-05-18T04:26:42.569Z,98757.29
2018-05-18T04:29:10.061Z,98759.03
2018-05-18T04:31:37.692Z,98758.13
2018-05-18T04:34:05.114Z,98758.96
2018-05-18T04:36:32.600Z,98753.66
2018-05-18T04:39:00.088Z,98759.33
2018-05-18T04:41:27.599Z,98757.98
2018-05-18T04:43:55.079Z,98761.02
2018-05-18T04:46:22.570Z,98756.55
2018-05-18T04:48:50.145Z,98760.38
2018-05-18T04:51:17.634Z,98765.52
2018-05-18T04:53:45.437Z,98766.27
2018-05-18T04:56:12.924Z,98765.69
2018-05-18T04:58:40.501Z,98762.06
2018-05-18T05:01:08.074Z,98764.13
2018-05-18T05:03:35.588Z,98770.13
2018-05-18T05:06:03.077Z,98769.61
2018-05-18T05:08:30.691Z,98767.79
2018-05-18T05:10:58.209Z,98775.55
2018-05-18T05:13:25.790Z,98771.09
2018-05-18T05:15:53.280Z,98773.13
2018-05-18T05:18:20.788Z,98768.66
2018-05-18T05:20:48.383Z,98769.79
2018-05-18T05:23:15.881Z,98769.56
2018-05-18T05:25:43.372Z,98773.03
2018-05-18T05:28:10.851Z,98779.93
2018-05-18T05:30:38.349Z,98775.80
2018-05-18T05:33:05.833Z,98780.39
2018-05-18T05:35:33.385Z,98786.43
2018-05-18T05:38:02.636Z,98788.87
2018-05-18T05:40:31.299Z,98785.25
2018-05-18T05:43:00.411Z,98788.61
2018-05-18T05:45:27.946Z,98794.22
2018-05-18T05:47:55.457Z,98794.97
2018-05-18T05:50:22.947Z,98793.87
2018-05-18T05:52:50.466Z,98793.64
2018-05-18T05:55:17.972Z,98789.86
2018-05-18T05:57:45.483Z,98795.41
2018-05-18T06:00:12.973Z,98789.73
2018-05-18T06:02:40.485Z,98785.31
2018-05-18T06:05:07.972Z,98785.20
2018-05-18T06:07:35.498Z,98787.63
2018-05-18T06:10:04.327Z,98781.59
2018-05-18T06:12:31.852Z,98776.05
2018-05-18T06:14:59.435Z,98782.39
2018-05-18T06:17:26.925Z,98776.33
2018-05-18T06:19:54.425Z,98775.94
2018-05-18T06:22:21.917Z,98779.55
2018-05-18T06:24:49.425Z,98784.23
2018-05-18T06:27:16.964Z,98786.09
2018-05-18T06:29:44.537Z,98779.36
2018-05-18T06:32:12.034Z,98782.14
2018-05-18T06:34:39.629Z,98779.88
2018-05-18T06:37:07.064Z,98781.26
2018-05-18T06:39:34.556Z,98784.69
2018-05-18T06:42:02.040Z,98780.52
2018-05-18T06:44:29.528Z,98783.63
2018-05-18T06:46:57.136Z,98784.89
2018-05-18T06:49:24.620Z,98787.43
2018-05-18T06:51:52.182Z,98786.06
2018-05-18T06:54:19.709Z,98786.91
2018-05-18T06:56:47.229Z,98792.66
2018-05-18T06:59:14.757Z,98793.03
2018-05-18T07:01:42.258Z,98793.27
2018-05-18T07:04:09.781Z,98794.92
2018-05-18T07:06:37.252Z,98787.76
2018-05-18T07:09:05.700Z,98789.98
2018-05-18T07:11:33.194Z,98784.98
2018-05-18T07:14:00.703Z,98785.74
2018-05-18T07:16:28.560Z,98788.36
2018-05-18T07:18:56.075Z,98785.93
2018-05-18T07:21:23.839Z,98783.63
2018-05-18T07:23:51.436Z,98782.67
2018-05-18T07:26:19.861Z,98786.75
2018-05-18T07:28:47.377Z,98784.47
2018-05-18T07:31:14.928Z,98786.84
2018-05-18T07:33:42.525Z,98786.05
2018-05-18T07:36:10.069Z,98781.64
2018-05-18T07:38:37.532Z,98782.62
2018-05-18T07:41:05.202Z,98782.23
2018-05-18T07:43:32.753Z,98776.79
2018-05-18T07:46:00.256Z,98777.78
2018-05-18T07:48:27.738Z,98778.69
2018-05-18T07:50:55.230Z,98776.49
2018-05-18T07:53:22.736Z,98774.58
2018-05-18T07:55:50.249Z,98771.25
2018-05-18T07:58:17.774Z,98771.54
2018-05-18T08:00:45.344Z,98776.41
2018-05-18T08:03:12.826Z,98776.13
2018-05-18T08:05:40.343Z,98779.23
2018-05-18T08:08:07.945Z,98773.53
2018-05-18T08:10:35.508Z,98782.78
2018-05-18T08:13:08.697Z,98778.23
2018-05-18T08:19:52.167Z,98769.84
2018-05-18T08:22:19.669Z,98774.18
2018-05-18T08:24:47.224Z,98779.23
2018-05-18T08:27:23.703Z,98773.98
2018-05-18T08:29:51.199Z,98774.90
2018-05-18T08:32:18.697Z,98778.09
2018-05-18T08:34:46.226Z,98777.75
2018-05-18T08:37:13.776Z,98776.51
2018-05-18T08:39:41.483Z,98775.50
2018-05-18T08:42:09.047Z,98773.12
2018-05-18T08:44:36.566Z,98777.03
2018-05-18T08:47:04.056Z,98774.78
2018-05-18T08:49:31.605Z,98771.93
2018-05-18T08:51:59.140Z,98769.23
2018-05-18T08:54:26.692Z,98767.25
2018-05-18T08:56:54.256Z,98767.97
2018-05-18T08:59:21.743Z,98765.56
2018-05-18T09:01:49.280Z,98764.51
2018-05-18T09:04:16.772Z,98761.01
2018-05-18T09:06:44.245Z,98770.44
2018-05-18T09:09:11.740Z,98758.57
2018-05-18T09:11:39.264Z,98766.41
2018-05-18T09:14:06.841Z,98754.20
2018-05-18T09:16:34.315Z,98755.72
2018-05-18T09:19:01.789Z,98763.73
2018-05-18T09:21:29.281Z,98765.45
2018-05-18T09:23:56.794Z,98761.42
2018-05-18T09:26:24.381Z,98760.98
2018-05-18T09:28:51.829Z,98761.48
2018-05-18T09:31:19.334Z,98764.77
2018-05-18T09:33:46.836Z,98772.02
2018-05-18T09:36:14.355Z,98763.89
2018-05-18T09:38:41.858Z,98770.53
2018-05-18T09:41:09.373Z,98768.56
2018-05-18T09:43:36.853Z,98764.56
2018-05-18T09:46:04.359Z,98765.73
2018-05-18T09:48:31.885Z,98764.03
2018-05-18T09:50:59.406Z,98767.16
2018-05-18T09:53:26.917Z,98763.66
2018-05-18T09:55:54.455Z,98763.05
2018-05-18T09:58:21.941Z,98766.03
2018-05-18T10:00:49.458Z,98764.78
2018-05-18T10:03:16.958Z,98762.92
2018-05-18T10:05:44.585Z,98768.15
2018-05-18T10:08:12.085Z,98766.52
2018-05-18T10:10:39.636Z,98768.20
2018-05-18T10:13:07.156Z,98764.67
2018-05-18T10:15:34.655Z,98763.22
2018-05-18T10:18:02.179Z,98759.38
2018-05-18T10:20:29.688Z,98751.87
2018-05-18T10:22:57.181Z,98749.19
2018-05-18T10:25:26.541Z,98749.22
2018-05-18T10:27:54.078Z,98746.23
2018-05-18T10:30:31.434Z,98754.75
2018-05-18T10:32:58.922Z,98749.30
2018-05-18T10:35:27.301Z,98747.55
2018-05-18T10:37:54.854Z,98751.44
2018-05-18T10:40:22.397Z,98750.42
2018-05-18T10:42:49.964Z,98748.48
2018-05-18T10:45:17.507Z,98740.75
2018-05-18T10:47:44.994Z,98740.28
2018-05-18T10:50:12.537Z,98745.06
2018-05-18T10:52:40.078Z,98742.59
2018-05-18T10:55:07.570Z,98740.60
2018-05-18T10:57:35.072Z,98739.61
2018-05-18T11:00:02.603Z,98737.90
2018-05-18T11:02:31.497Z,98730.11
2018-05-18T11:04:59.207Z,98721.69
2018-05-18T11:07:26.718Z,98720.69
2018-05-18T11:09:55.028Z,98723.55
2018-05-18T11:12:22.627Z,98723.64
2018-05-18T11:14:50.131Z,98716.42
2018-05-18T11:17:17.624Z,98721.34
2018-05-18T11:19:45.165Z,98714.11
2018-05-18T11:22:12.675Z,98714.17
2018-05-18T11:24:40.206Z,98717.34
2018-05-18T11:27:07.698Z,98708.87
2018-05-18T11:29:35.326Z,98709.73
2018-05-18T11:32:02.813Z,98705.61
2018-05-18T11:34:30.322Z,98707.61
2018-05-18T11:36:57.850Z,98707.16
2018-05-18T11:39:25.451Z,98703.63
2018-05-18T11:41:52.980Z,98709.34
2018-05-18T11:44:20.486Z,98704.46
2018-05-18T11:46:47.980Z,98704.17
2018-05-18T11:49:15.501Z,98709.21
2018-05-18T11:51:43.162Z,98700.48
2018-05-18T11:54:10.640Z,98687.20
2018-05-18T11:56:38.151Z,98694.05
2018-05-18T11:59:05.828Z,98689.14
2018-05-18T12:01:33.372Z,98684.00
2018-05-18T12:04:01.389Z,98688.10
2018-05-18T12:06:28.926Z,98676.01
2018-05-18T12:08:56.502Z,98675.99
2018-05-18T12:11:23.983Z,98682.59
2018-05-18T12:13:51.486Z,98671.66
2018-05-18T12:16:18.995Z,98667.98
2018-05-18T12:18:46.516Z,98660.73
2018-05-18T12:21:14.114Z,98664.50
2018-05-18T12:23:41.700Z,98649.19
2018-05-18T12:26:09.398Z,98656.40
2018-05-18T12:28:36.914Z,98653.52
2018-05-18T12:31:04.446Z,98643.42
2018-05-18T12:33:31.999Z,98645.93
2018-05-18T12:35:59.529Z,98644.70
2018-05-18T12:38:27.092Z,98636.31
2018-05-18T12:40:54.535Z,98640.54
2018-05-18T12:43:22.036Z,98643.44
2018-05-18T12:45:49.521Z,98639.14
2018-05-18T12:48:17.014Z,98640.78
2018-05-18T12:50:44.672Z,98630.14
2018-05-18T12:53:12.240Z,98631.54
2018-05-18T12:55:39.733Z,98625.99
2018-05-18T12:58:07.255Z,98619.31
2018-05-18T13:00:36.877Z,98617.53
2018-05-18T13:03:04.723Z,98613.16
2018-05-18T13:05:33.527Z,98623.89
2018-05-18T13:08:02.410Z,98614.42
2018-05-18T13:10:30.040Z,98614.00
2018-05-18T13:12:58.670Z,98609.62
2018-05-18T13:15:27.550Z,98613.81
2018-05-18T13:17:55.544Z,98605.66
2018-05-18T13:20:26.520Z,98602.30
2018-05-18T13:22:54.270Z,98606.06
2018-05-18T13:25:22.097Z,98612.25
2018-05-18T13:27:49.611Z,98596.11
2018-05-18T13:30:17.118Z,98604.61
2018-05-18T13:32:44.719Z,98592.08
2018-05-18T13:35:12.337Z,98595.72
2018-05-18T13:37:39.849Z,98595.20
2018-05-18T13:40:07.439Z,98586.55
2018-05-18T13:42:35.128Z,98586.65
2018-05-18T13:45:02.812Z,98587.66
2018-05-18T13:47:30.524Z,98584.41
2018-05-18T13:49:58.200Z,98586.32
2018-05-18T13:52:25.712Z,98578.08
2018-05-18T13:54:53.530Z,98583.50
2018-05-18T13:57:21.095Z,98581.06
2018-05-18T13:59:48.824Z,98577.20
2018-05-18T14:02:16.505Z,98571.90
2018-05-18T14:04:44.071Z,98572.69
2018-05-18T14:07:11.963Z,98561.99
2018-05-18T14:09:40.325Z,98560.72
2018-05-18T14:12:08.309Z,98557.09
2018-05-18T14:14:36.768Z,98552.59
2018-05-18T14:17:04.681Z,98552.58
2018-05-18T14:19:32.504Z,98559.56
2018-05-18T14:22:00.417Z,98550.52
2018-05-18T14:24:29.058Z,98549.12
2018-05-18T14:26:56.541Z,98552.11
2018-05-18T14:29:24.217Z,98548.30
2018-05-18T14:31:52.007Z,98552.39
2018-05-18T14:34:20.608Z,98544.81
2018-05-18T14:36:48.494Z,98538.47
2018-05-18T14:39:16.324Z,98540.91
2018-05-18T14:41:44.743Z,98533.04
2018-05-18T14:44:12.300Z,98539.85
2018-05-18T14:46:45.502Z,98537.94
2018-05-18T14:49:13.332Z,98536.08
2018-05-18T14:51:40.820Z,98534.41
2018-05-18T14:54:08.349Z,98539.47
2018-05-18T14:56:35.840Z,98535.06
2018-05-18T14:59:03.385Z,98530.04
2018-05-18T15:01:30.864Z,98527.19
2018-05-18T15:03:58.371Z,98524.90
2018-05-18T15:06:25.900Z,98525.16
2018-05-18T15:08:53.895Z,98519.02
2018-05-18T15:11:21.416Z,98518.48
2018-05-18T15:13:48.891Z,98522.45
2018-05-18T15:16:17.149Z,98521.09
2018-05-18T15:18:44.732Z,98521.18
2018-05-18T15:21:12.221Z,98521.66
2018-05-18T15:23:39.730Z,98522.44
2018-05-18T15:26:07.279Z,98519.12
2018-05-18T15:28:34.871Z,98520.11
2018-05-18T15:31:02.592Z,98521.44
2018-05-18T15:33:30.396Z,98519.20
2018-05-18T15:35:57.913Z,98508.02
2018-05-18T15:38:25.407Z,98510.31
2018-05-18T15:40:53.004Z,98509.09
2018-05-18T15:43:21.693Z,98517.01
2018-05-18T15:45:49.285Z,98512.78
2018-05-18T15:48:16.976Z,98515.17
2018-05-18T15:50:44.893Z,98515.92
2018-05-18T15:53:12.463Z,98510.92
2018-05-18T15:55:39.900Z,98516.79
2018-05-18T15:58:07.409Z,98508.20
2018-05-18T16:00:34.919Z,98517.30
2018-05-18T16:03:02.423Z,98511.00
2018-05-18T16:05:29.918Z,98518.83
2018-05-18T16:07:57.521Z,98510.30
2018-05-18T16:10:24.997Z,98512.08
2018-05-18T16:12:52.613Z,98508.01
2018-05-18T16:15:20.067Z,98511.64
2018-05-18T16:17:47.559Z,98508.05
2018-05-18T16:20:15.049Z,98510.55
2018-05-18T16:22:42.541Z,98508.73
2018-05-18T16:25:10.019Z,98508.88
2018-05-18T16:27:37.532Z,98501.50
2018-05-18T16:30:05.053Z,98505.77
2018-05-18T16:32:32.660Z,98506.83
2018-05-18T16:35:00.140Z,98498.45
2018-05-18T16:37:27.639Z,98503.87
2018-05-18T16:39:55.123Z,98508.41
2018-05-18T16:42:22.597Z,98508.15
2018-05-18T16:44:50.077Z,98509.77
2018-05-18T16:47:17.589Z,98505.63
2018-05-18T16:49:45.313Z,98509.31
2018-05-18T16:52:13.195Z,98518.12
2018-05-18T16:54:41.732Z,98518.67
2018-05-18T16:57:09.432Z,98520.17
2018-05-18T16:59:38.159Z,98523.31
2018-05-18T17:02:05.729Z,98523.66
2018-05-18T17:04:34.052Z,98521.34
2018-05-18T17:07:01.606Z,98524.34
2018-05-18T17:09:29.544Z,98519.98
2018-05-18T17:11:57.035Z,98522.58
2018-05-18T17:14:25.824Z,98519.16
2018-05-18T17:16:53.992Z,98513.70
2018-05-18T17:19:22.556Z,98518.28
2018-05-18T17:21:50.613Z,98522.40
2018-05-18T17:24:18.521Z,98515.13
2018-05-18T17:26:46.063Z,98521.74
2018-05-18T17:29:13.717Z,98516.14
2018-05-18T17:31:41.963Z,98520.66
2018-05-18T17:34:09.729Z,98519.39
2018-05-18T17:36:37.634Z,98517.23
2018-05-18T17:39:06.136Z,98523.00
2018-05-18T17:41:33.878Z,98519.70
2018-05-18T17:44:01.651Z,98524.93
2018-05-18T17:46:29.825Z,98514.91
2018-05-18T17:48:58.149Z,98519.98
2018-05-18T17:51:25.757Z,98527.48
2018-05-18T17:53:53.291Z,98529.84
2018-05-18T17:56:20.789Z,98533.57
2018-05-18T17:58:49.755Z,98531.41
2018-05-18T18:01:17.880Z,98534.94
2018-05-18T18:03:45.610Z,98535.98
2018-05-18T18:06:13.474Z,98536.30
2018-05-18T18:08:41.140Z,98537.01
2018-05-18T18:11:08.660Z,98543.34
2018-05-18T18:13:36.204Z,98538.77
2018-05-18T18:16:03.684Z,98543.23
2018-05-18T18:18:31.218Z,98542.78
2018-05-18T18:20:58.890Z,98551.17
2018-05-18T18:23:26.470Z,98548.86
2018-05-18T18:25:54.151Z,98552.63
2018-05-18T18:28:21.646Z,98554.05
2018-05-18T18:30:50.056Z,98552.47
2018-05-18T18:33:17.589Z,98557.60
2018-05-18T18:35:45.084Z,98560.57
2018-05-18T18:38:12.587Z,98560.48
2018-05-18T18:40:40.067Z,98561.45
2018-05-18T18:43:07.566Z,98562.65
2018-05-18T18:45:35.057Z,98569.98
2018-05-18T18:48:02.838Z,98572.36
2018-05-18T18:50:30.325Z,98576.34
2018-05-18T18:52:57.826Z,98572.03
2018-05-18T18:55:25.360Z,98577.31
2018-05-18T18:57:52.874Z,98576.73
2018-05-18T19:00:20.386Z,98580.45
2018-05-18T19:02:47.872Z,98584.45
2018-05-18T19:05:15.380Z,98590.39
2018-05-18T19:07:42.887Z,98594.38
2018-05-18T19:10:10.401Z,98582.14
2018-05-18T19:12:37.901Z,98582.64
2018-05-18T19:15:05.411Z,98586.53
2018-05-18T19:17:32.961Z,98594.20
2018-05-18T19:20:00.527Z,98593.44
2018-05-18T19:22:28.015Z,98588.98
2018-05-18T19:24:55.497Z,98599.02
2018-05-18T19:27:23.070Z,98597.55
2018-05-18T19:29:50.842Z,98601.87
2018-05-18T19:32:18.517Z,98600.02
2018-05-18T19:34:46.126Z,98600.81
2018-05-18T19:37:13.617Z,98599.29
2018-05-18T19:39:41.134Z,98602.16
2018-05-18T19:42:08.634Z,98606.09
2018-05-18T19:44:36.125Z,98598.67
2018-05-18T19:47:03.609Z,98598.52
2018-05-18T19:49:31.135Z,98601.18
2018-05-18T19:51:58.650Z,98605.39
2018-05-18T19:54:26.175Z,98609.55
2018-05-18T19:56:53.664Z,98608.45
2018-05-18T19:59:21.175Z,98610.98
2018-05-18T20:01:48.692Z,98615.70
2018-05-18T20:04:16.200Z,98612.06
2018-05-18T20:06:43.707Z,98617.11
2018-05-18T20:09:11.220Z,98617.49
2018-05-18T20:11:38.719Z,98617.62
2018-05-18T20:14:06.241Z,98625.75
2018-05-18T20:16:33.733Z,98620.81
2018-05-18T20:19:01.239Z,98620.47
2018-05-18T20:21:28.750Z,98618.65
2018-05-18T20:23:56.255Z,98628.11
2018-05-18T20:26:23.823Z,98628.08
2018-05-18T20:28:51.323Z,98631.40
2018-05-18T20:31:18.842Z,98630.35
2018-05-18T20:33:46.364Z,98635.85
2018-05-18T20:36:13.850Z,98642.17
2018-05-18T20:38:41.343Z,98639.67
2018-05-18T20:41:08.856Z,98651.34
2018-05-18T20:43:36.369Z,98652.42
2018-05-18T20:46:03.986Z,98653.08
2018-05-18T20:48:31.473Z,98661.07
2018-05-18T20:50:58.986Z,98658.86
2018-05-18T20:53:26.484Z,98664.99
2018-05-18T20:55:53.993Z,98668.25
2018-05-18T20:58:21.507Z,98672.84
2018-05-18T21:00:49.032Z,98673.62
2018-05-18T21:03:16.606Z,98674.48
2018-05-18T21:05:44.131Z,98674.98
2018-05-18T21:08:11.638Z,98674.26
2018-05-18T21:10:39.168Z,98674.29
2018-05-18T21:13:06.681Z,98676.91
2018-05-18T21:15:34.167Z,98681.19
2018-05-18T21:18:01.653Z,98687.39
2018-05-18T21:20:29.175Z,98685.08
2018-05-18T21:22:56.664Z,98682.98
2018-05-18T21:25:24.170Z,98688.55
2018-05-18T21:27:51.711Z,98687.26
2018-05-18T21:30:19.226Z,98683.95
2018-05-18T21:32:46.726Z,98683.84
2018-05-18T21:35:14.497Z,98683.88
2018-05-18T21:37:42.037Z,98691.86
2018-05-18T21:40:09.542Z,98689.21
2018-05-18T21:42:37.051Z,98684.94
2018-05-18T21:45:04.581Z,98685.56
2018-05-18T21:47:32.095Z,98685.81
2018-05-18T21:49:59.628Z,98686.38
2018-05-18T21:52:27.115Z,98684.66
2018-05-18T21:54:54.624Z,98687.80
2018-05-18T21:57:22.272Z,98686.69
2018-05-18T21:59:49.769Z,98687.20
2018-05-18T22:02:17.253Z,98688.53
2018-05-18T22:04:44.763Z,98696.78
2018-05-18T22:07:12.248Z,98695.70
2018-05-18T22:09:39.787Z,98699.66
2018-05-18T22:12:07.360Z,98707.63
2018-05-18T22:14:34.870Z,98709.16
2018-05-18T22:17:02.362Z,98711.06
2018-05-18T22:19:29.874Z,98711.80
2018-05-18T22:21:57.390Z,98713.59
2018-05-18T22:24:24.972Z,98710.83
2018-05-18T22:26:52.492Z,98708.30
2018-05-18T22:29:20.052Z,98710.66
2018-05-18T22:31:47.545Z,98703.13
2018-05-18T22:34:15.052Z,98703.27
2018-05-18T22:36:42.528Z,98701.69
2018-05-18T22:39:10.040Z,98708.84
2018-05-18T22:41:37.572Z,98707.34
2018-05-18T22:44:05.084Z,98706.08
2018-05-18T22:46:32.591Z,98706.59
2018-05-18T22:49:00.088Z,98712.02
2018-05-18T22:51:27.596Z,98709.81
2018-05-18T22:53:55.136Z,98712.19
2018-05-18T22:56:22.657Z,98714.42
2018-05-18T22:58:50.153Z,98706.46
2018-05-18T23:01:17.655Z,98709.62
2018-05-18T23:03:45.140Z,98710.99
2018-05-18T23:06:12.633Z,98708.67
2018-05-18T23:08:40.134Z,98711.48
2018-05-18T23:11:07.671Z,98714.05
2018-05-18T23:13:35.147Z,98712.67
2018-05-18T23:16:02.660Z,98716.15
2018-05-18T23:18:30.213Z,98712.56
2018-05-18T23:20:57.704Z,98712.61
2018-05-18T23:23:25.204Z,98703.36
2018-05-18T23:25:52.872Z,98706.78
2018-05-18T23:28:20.298Z,98703.70
2018-05-18T23:30:47.805Z,98703.08
2018-05-18T23:33:15.310Z,98706.27
2018-05-18T23:35:42.853Z,98705.22
2018-05-18T23:38:10.372Z,98700.82
2018-05-18T23:40:37.885Z,98701.58
2018-05-18T23:43:05.478Z,98704.97
2018-05-18T23:45:33.014Z,98706.73
2018-05-18T23:48:00.540Z,98700.39
2018-05-18T23:50:28.020Z,98697.83
2018-05-18T23:52:55.672Z,98693.91
2018-05-18T23:55:23.192Z,98696.64
2018-05-18T23:57:50.793Z,98686.61
